Time;durP1;ratioP1;P1;durP2;ratioP2;P2;SDS_P1;SDS_P2;PMS_P1;PMS_P2;Temp;Humidity;BMP_temperature;BMP_pressure;BME280_temperature;BME280_humidity;BME280_pressure;Samples;Min_cycle;Max_cycle;Signal;HPM_P1;HPM_P2
2021/09/14 01:03:58;;;;;;;2.85;1.23;;;14.50;92.20;;;;;;4898838;29;20036;-88
2021/09/14 04:33:46;;;;;;;6.43;3.70;;;14.30;92.10;;;;;;5498349;23;20037;31
2021/09/14 05:25:56;;;;;;;9.52;5.22;;;13.90;92.60;;;;;;4916940;29;20051;-87
2021/09/14 06:10:09;;;;;;;;;;;;;;;;;;;;;
2021/09/14 06:13:04;;;;;;;7.70;5.15;;;13.60;92.40;;;;;;4863840;29;20048;-87
2021/09/14 06:16:25;;;;;;;9.43;5.75;;;13.60;92.80;;;;;;4906681;29;20048;-92
2021/09/14 06:23:16;;;;;;;11.52;5.70;;;13.60;92.80;;;;;;4847050;29;20045;-94
2021/09/14 06:43:38;;;;;;;9.32;5.78;;;13.70;93.30;;;;;;4939931;23;20501;-87
2021/09/14 06:46:04;;;;;;;8.35;5.35;;;13.70;93.40;;;;;;4902188;29;20052;-86
2021/09/14 06:48:30;;;;;;;9.82;5.72;;;13.80;93.40;;;;;;4895640;29;20446;-86
2021/09/14 06:50:55;;;;;;;9.27;5.60;;;13.80;93.20;;;;;;4892040;29;20052;-86
2021/09/14 06:53:26;;;;;;;10.20;5.85;;;13.90;93.20;;;;;;4895256;29;20083;-87
2021/09/14 07:44:39;;;;;;;;;;;15.10;92.70;;;;;;4900941;29;20149;-88
2021/09/14 07:47:17;;;;;;;9.02;5.68;;;15.20;92.20;;;;;;4882769;29;20026;-87
2021/09/14 07:49:45;;;;;;;9.10;6.20;;;15.30;92.50;;;;;;4882771;29;20141;-87
2021/09/14 07:52:12;;;;;;;8.77;5.93;;;15.40;92.60;;;;;;4884056;29;20447;-86
2021/09/14 07:54:38;;;;;;;12.98;6.63;;;15.50;92.60;;;;;;4883928;29;20041;-86
2021/09/14 07:57:04;;;;;;;12.40;6.63;;;15.60;92.60;;;;;;4903390;23;20055;-89
2021/09/14 07:59:30;;;;;;;11.00;6.57;;;15.70;92.60;;;;;;4902825;29;20055;-88
2021/09/14 08:01:56;;;;;;;12.85;6.47;;;15.80;92.60;;;;;;4898870;29;20200;-88
2021/09/14 08:04:21;;;;;;;10.75;6.18;;;15.90;92.50;;;;;;4892661;29;20147;-85
2021/09/14 08:06:47;;;;;;;9.40;6.07;;;16.00;92.40;;;;;;4900583;29;20048;-87
2021/09/14 08:09:13;;;;;;;10.25;6.47;;;16.00;92.20;;;;;;4901628;29;20095;-86
2021/09/14 08:11:42;;;;;;;10.45;6.28;;;16.10;92.20;;;;;;4901702;29;20051;-87
2021/09/14 08:14:07;;;;;;;11.15;6.47;;;16.20;92.20;;;;;;4902870;29;20055;-87
2021/09/14 08:16:33;;;;;;;9.65;6.10;;;16.20;92.30;;;;;;4891062;29;20048;-87
2021/09/14 08:31:18;;;;;;;;;;;;;;;;;;;;;
2021/09/14 08:34:09;;;;;;;10.82;5.85;;;16.70;91.90;;;;;;4813353;29;20049;-88
2021/09/14 08:36:43;;;;;;;8.85;5.70;;;16.80;92.00;;;;;;4813734;29;20051;-89
2021/09/14 08:39:12;;;;;;;10.52;6.25;;;17.00;92.00;;;;;;4809555;29;20050;-89
2021/09/14 08:41:38;;;;;;;11.77;6.40;;;17.10;91.90;;;;;;4808482;29;20137;-89
2021/09/14 08:44:19;;;;;;;9.60;6.07;;;17.20;91.80;;;;;;4808695;29;20527;-89
2021/09/14 08:47:03;;;;;;;10.93;6.28;;;17.30;91.70;;;;;;4849590;29;20049;-89
2021/09/14 08:49:53;;;;;;;9.07;6.05;;;17.40;91.60;;;;;;4864422;29;20085;-89
2021/09/14 08:53:07;;;;;;;;;;;;;;;;;;;;;
2021/09/14 08:55:53;;;;;;;;;;;17.60;91.40;;;;;;4818432;29;20058;-89
2021/09/14 08:59:10;;;;;;;10.25;6.22;;;17.60;91.40;;;;;;4883123;29;19929;-88
2021/09/14 09:01:35;;;;;;;11.02;5.65;;;17.70;91.80;;;;;;4773386;30;20085;-89
2021/09/14 09:04:05;;;;;;;8.73;5.85;;;17.80;91.60;;;;;;4792569;29;20414;-90
2021/09/14 09:07:26;;;;;;;10.18;5.90;;;17.80;91.50;;;;;;4863499;29;20084;-89
2021/09/14 09:10:36;;;;;;;;;;;;;;;;;;;;;
2021/09/14 09:14:01;;;;;;;9.70;5.80;;;18.00;91.50;;;;;;4783536;29;20061;-90
2021/09/14 09:16:29;;;;;;;10.88;6.40;;;18.10;91.40;;;;;;4843199;29;20566;-89
2021/09/14 09:19:04;;;;;;;8.52;5.50;;;18.20;91.60;;;;;;4844144;29;20140;-89
2021/09/14 09:22:02;;;;;;;10.68;6.05;;;18.30;91.40;;;;;;4886457;29;20095;-90
2021/09/14 09:28:41;;;;;;;12.23;6.13;;;18.50;91.30;;;;;;5133770;23;20060;-89
2021/09/14 09:31:09;;;;;;;8.38;5.72;;;18.50;91.40;;;;;;4901327;29;20087;-89
2021/09/14 09:33:35;;;;;;;9.48;5.35;;;18.60;91.40;;;;;;4901308;29;20051;-90
2021/09/14 09:36:04;;;;;;;9.70;5.55;;;18.70;91.40;;;;;;4900950;29;20484;-89
2021/09/14 09:38:44;;;;;;;9.20;5.63;;;18.80;91.30;;;;;;4900564;29;20052;-89
2021/09/14 09:45:21;;;;;;;8.40;5.38;;;18.90;90.90;;;;;;4828621;29;20054;-90
2021/09/14 09:48:35;;;;;;;8.02;5.25;;;19.00;90.90;;;;;;4908201;29;20051;-89
2021/09/14 09:55:35;;;;;;;6.95;5.07;;;19.20;90.80;;;;;;4897141;29;20481;-90
2021/09/14 10:02:47;;;;;;;7.50;4.90;;;19.30;90.90;;;;;;4879530;29;20040;-90
2021/09/14 10:05:56;;;;;;;7.10;4.80;;;19.40;91.00;;;;;;4862903;29;20045;-92
2021/09/14 10:12:54;;;;;;;9.73;4.82;;;19.50;90.80;;;;;;4806438;29;20090;-91
2021/09/14 11:34:05;;;;;;;7.25;5.22;;;21.80;87.40;;;;;;4825313;29;20522;-90
2021/09/14 11:41:55;;;;;;;8.10;4.80;;;21.90;87.00;;;;;;4828375;29;20061;-90
2021/09/14 12:03:17;;;;;;;8.65;4.72;;;22.50;86.60;;;;;;4821675;29;20053;-91
2021/09/14 12:06:02;;;;;;;7.95;4.57;;;22.60;85.80;;;;;;4809611;29;20100;-91
2021/09/14 12:12:30;;;;;;;7.65;5.57;;;22.70;85.80;;;;;;4805759;29;20472;-91
2021/09/14 12:15:10;;;;;;;6.97;4.43;;;22.80;83.20;;;;;;4839058;29;20054;-91
2021/09/14 12:17:49;;;;;;;8.00;4.70;;;22.80;85.10;;;;;;4809906;29;20060;-92
2021/09/14 12:20:20;;;;;;;7.85;4.90;;;22.90;84.80;;;;;;4823484;29;20038;-91
2021/09/14 12:26:18;;;;;;;8.20;5.13;;;23.10;84.40;;;;;;4764733;30;20060;-92
2021/09/14 12:57:07;;;;;;;7.03;5.57;;;23.60;82.10;;;;;;4796815;29;20053;-90
2021/09/14 12:59:36;;;;;;;6.88;4.93;;;23.60;82.10;;;;;;4812685;29;20464;-89
2021/09/14 13:05:45;;;;;;;7.03;5.18;;;23.70;82.30;;;;;;4787261;29;20145;-89
2021/09/14 13:08:23;;;;;;;7.53;5.22;;;23.80;83.80;;;;;;4774500;29;20054;-88
2021/09/14 13:10:48;;;;;;;9.32;5.85;;;23.80;85.00;;;;;;4784030;29;20129;-89
2021/09/14 13:16:10;;;;;;;7.25;4.93;;;24.00;84.00;;;;;;4787618;29;20526;-89
2021/09/14 13:18:37;;;;;;;7.25;4.97;;;24.00;84.40;;;;;;4775031;29;20055;-89
2021/09/14 13:21:06;;;;;;;9.00;5.30;;;24.00;84.40;;;;;;4839022;29;20053;-89
2021/09/14 13:23:33;;;;;;;8.52;4.93;;;24.10;82.00;;;;;;4813631;29;20049;-89
2021/09/14 13:26:05;;;;;;;7.97;5.20;;;24.10;82.30;;;;;;4829751;29;20141;-90
2021/09/14 13:28:31;;;;;;;7.95;4.38;;;24.10;78.40;;;;;;4823404;29;20056;-89
2021/09/14 13:31:00;;;;;;;6.63;4.90;;;24.10;75.90;;;;;;4812931;29;20044;-90
2021/09/14 13:33:26;;;;;;;6.53;4.97;;;24.10;79.90;;;;;;4813309;29;20051;-90
2021/09/14 13:35:51;;;;;;;7.57;5.28;;;24.10;77.80;;;;;;4821169;29;20122;-90
2021/09/14 13:38:17;;;;;;;12.27;5.05;;;24.10;74.40;;;;;;4827080;29;20148;-89
2021/09/14 13:40:46;;;;;;;9.60;4.68;;;24.10;75.70;;;;;;4821865;29;20141;-90
2021/09/14 13:43:12;;;;;;;7.35;4.82;;;24.20;75.20;;;;;;4832054;29;20438;-89
2021/09/14 13:48:25;;;;;;;6.47;4.47;;;24.10;75.60;;;;;;4826088;29;20056;-90
2021/09/14 13:50:53;;;;;;;9.15;5.05;;;24.10;72.70;;;;;;4826376;29;20095;-90
2021/09/14 13:53:19;;;;;;;7.80;4.90;;;24.10;73.70;;;;;;4856736;29;20060;-90
2021/09/14 13:55:45;;;;;;;7.03;5.15;;;24.10;74.90;;;;;;4824757;29;20132;-90
2021/09/14 13:58:11;;;;;;;7.07;5.00;;;24.10;78.10;;;;;;4818373;29;20050;-89
2021/09/14 14:00:37;;;;;;;6.68;5.00;;;24.10;78.10;;;;;;4808779;29;20039;-90
2021/09/14 14:03:04;;;;;;;7.22;4.55;;;24.10;74.60;;;;;;4823001;29;20102;-89
2021/09/14 14:05:29;;;;;;;7.63;4.82;;;24.10;73.00;;;;;;4826542;29;20069;-90
2021/09/14 14:07:55;;;;;;;7.18;4.93;;;24.10;73.50;;;;;;4823825;29;20077;-89
2021/09/14 14:10:20;;;;;;;6.78;4.90;;;24.10;75.00;;;;;;4843463;29;20041;-89
2021/09/14 14:12:46;;;;;;;6.88;4.80;;;24.10;78.30;;;;;;4827096;29;20056;-89
2021/09/14 14:15:12;;;;;;;6.32;4.13;;;24.20;79.50;;;;;;4830072;29;20053;-89
2021/09/14 14:17:41;;;;;;;5.75;4.38;;;24.20;78.60;;;;;;4807392;29;20054;-90
2021/09/14 14:20:15;;;;;;;7.43;4.80;;;24.30;78.00;;;;;;4843008;29;20125;-89
2021/09/14 14:22:41;;;;;;;7.57;5.13;;;24.20;74.50;;;;;;4846443;29;20094;-90
2021/09/14 14:25:10;;;;;;;7.45;4.90;;;24.30;76.70;;;;;;4829652;29;20046;-90
2021/09/14 14:28:29;;;;;;;;;;;;;;;;;;;;;
2021/09/14 14:31:45;;;;;;;;;;;;;;;;;;;;;
2021/09/14 14:34:32;;;;;;;6.40;4.72;;;24.40;79.40;;;;;;4807458;29;20060;-91
2021/09/14 14:37:35;;;;;;;6.10;4.68;;;24.50;81.00;;;;;;4830400;29;20129;-89
2021/09/14 14:40:10;;;;;;;7.85;4.70;;;24.60;81.50;;;;;;4824251;29;20443;-90
2021/09/14 14:42:48;;;;;;;7.00;5.20;;;24.60;82.00;;;;;;4822256;29;20049;-89
2021/09/14 14:45:15;;;;;;;7.13;4.97;;;24.70;78.80;;;;;;4829725;29;20067;-89
2021/09/14 14:51:41;;;;;;;8.27;5.03;;;24.80;76.60;;;;;;4842016;29;20172;-87
2021/09/14 14:54:22;;;;;;;6.57;4.60;;;24.80;77.80;;;;;;4829423;29;20059;-90
2021/09/14 14:57:03;;;;;;;6.75;5.05;;;24.80;80.30;;;;;;4827609;29;20129;-89
2021/09/14 14:59:32;;;;;;;6.32;4.80;;;24.90;80.80;;;;;;4823586;29;20451;-89
2021/09/14 15:02:10;;;;;;;6.13;4.78;;;24.90;81.10;;;;;;4828716;29;20066;-89
2021/09/14 15:04:45;;;;;;;7.20;4.72;;;24.90;80.90;;;;;;4826231;29;20080;-88
2021/09/14 15:07:26;;;;;;;5.82;4.55;;;24.90;79.70;;;;;;4843135;29;20042;-90
2021/09/14 15:10:01;;;;;;;8.05;5.38;;;24.90;79.90;;;;;;4854227;29;20575;-89
2021/09/14 15:12:42;;;;;;;6.28;4.85;;;24.90;80.20;;;;;;4828243;29;20037;-90
2021/09/14 15:15:17;;;;;;;6.00;4.63;;;24.90;80.90;;;;;;4824575;29;20053;-90
2021/09/14 15:17:48;;;;;;;5.75;4.75;;;24.90;81.10;;;;;;4829984;29;20034;-91
2021/09/14 15:20:27;;;;;;;6.80;4.53;;;24.90;81.80;;;;;;4829265;29;20057;-90
2021/09/14 15:23:34;;;;;;;6.35;4.68;;;24.90;81.70;;;;;;4821106;29;20150;-89
2021/09/14 15:27:06;;;;;;;7.20;4.78;;;24.90;81.80;;;;;;4817919;29;20045;-89
2021/09/14 15:29:38;;;;;;;8.75;5.03;;;24.90;82.40;;;;;;4792314;29;20066;-88
2021/09/14 15:32:04;;;;;;;5.67;4.37;;;24.90;80.30;;;;;;4792822;29;20059;-89
2021/09/14 15:34:33;;;;;;;6.22;4.75;;;25.00;81.80;;;;;;4791407;29;20094;-90
2021/09/14 15:41:07;;;;;;;6.80;4.28;;;25.00;82.60;;;;;;4807070;29;20490;-92
2021/09/14 15:43:54;;;;;;;6.40;4.90;;;25.00;83.20;;;;;;4792722;29;20392;-92
2021/09/14 15:46:29;;;;;;;5.65;4.38;;;25.00;83.20;;;;;;4798820;29;20484;-91
2021/09/14 15:49:04;;;;;;;6.57;4.93;;;25.00;83.20;;;;;;4828506;29;20064;-90
2021/09/14 15:51:42;;;;;;;6.20;4.50;;;25.10;83.50;;;;;;4822696;29;20418;-89
2021/09/14 15:54:08;;;;;;;9.07;4.68;;;25.00;83.50;;;;;;4824875;29;20482;-89
2021/09/14 15:56:35;;;;;;;5.30;4.10;;;25.10;83.70;;;;;;4827561;29;20133;-90
2021/09/14 15:59:13;;;;;;;6.38;4.20;;;25.10;83.60;;;;;;4829178;29;20044;-90
2021/09/14 17:09:15;;;;;;;5.57;4.20;;;24.50;84.90;;;;;;4888714;29;20128;-90
2021/09/14 17:11:51;;;;;;;5.75;4.30;;;24.50;85.30;;;;;;4868689;29;20084;-89
2021/09/14 17:14:17;;;;;;;5.60;4.10;;;24.50;85.30;;;;;;4870076;29;20101;-91
2021/09/14 17:38:53;;;;;;;8.13;4.70;;;24.20;84.90;;;;;;4880630;29;20072;-90
2021/09/14 17:41:20;;;;;;;5.72;4.03;;;24.10;85.20;;;;;;4863315;29;20077;-90
2021/09/14 17:43:46;;;;;;;6.75;4.70;;;24.10;85.10;;;;;;4864575;29;20140;-90
2021/09/14 17:46:15;;;;;;;5.93;4.38;;;24.10;85.00;;;;;;4857698;29;20125;-90
2021/09/14 17:48:50;;;;;;;6.30;4.78;;;24.10;85.10;;;;;;4863358;29;20061;-89
2021/09/14 17:51:15;;;;;;;6.03;4.40;;;24.10;85.80;;;;;;4863356;29;20072;-90
2021/09/14 17:54:00;;;;;;;7.78;4.95;;;24.00;85.10;;;;;;4845535;29;20090;-90
2021/09/14 17:56:44;;;;;;;5.90;4.63;;;24.00;84.90;;;;;;4845561;29;20487;-90
2021/09/14 17:59:18;;;;;;;7.50;4.60;;;24.00;85.00;;;;;;4845445;29;20056;-90
2021/09/14 19:12:29;;;;;;;7.95;5.68;;;22.70;86.30;;;;;;4898282;29;20051;-90
2021/09/14 19:15:16;;;;;;;8.63;6.40;;;22.60;86.70;;;;;;4885500;29;20053;-91
2021/09/14 19:17:54;;;;;;;9.10;6.40;;;22.60;86.40;;;;;;4884761;29;20051;-92
2021/09/14 19:20:23;;;;;;;7.80;6.07;;;22.60;86.60;;;;;;4885463;29;20044;-91
2021/09/14 19:22:49;;;;;;;8.02;6.05;;;22.60;87.00;;;;;;4883682;29;20416;-91
2021/09/14 19:25:20;;;;;;;7.15;6.03;;;22.60;87.10;;;;;;4897277;23;20132;-91
2021/09/14 19:28:05;;;;;;;7.78;6.00;;;22.60;86.90;;;;;;4865351;29;20084;-90
2021/09/14 19:30:37;;;;;;;6.90;5.93;;;22.50;86.70;;;;;;4863614;29;20056;-89
2021/09/14 19:33:02;;;;;;;7.80;5.60;;;22.50;87.00;;;;;;4882542;29;20049;-91
2021/09/14 19:35:29;;;;;;;7.35;6.00;;;22.50;87.10;;;;;;4866699;29;20048;-90
2021/09/14 19:37:55;;;;;;;7.97;6.03;;;22.50;87.10;;;;;;4866179;29;20203;-90
2021/09/14 19:40:22;;;;;;;7.28;6.00;;;22.40;87.20;;;;;;4865325;29;20084;-90
2021/09/14 19:42:54;;;;;;;;;;;22.40;87.20;;;;;;4864097;29;20053;-86
2021/09/14 19:45:26;;;;;;;7.63;6.00;;;22.30;86.50;;;;;;4881283;29;19923;-87
2021/09/14 19:48:04;;;;;;;8.98;6.25;;;22.30;87.30;;;;;;4864706;29;20140;-88
2021/09/14 19:50:40;;;;;;;7.85;6.30;;;22.30;87.00;;;;;;4865183;29;20158;-89
2021/09/14 19:57:43;;;;;;;8.18;6.50;;;22.20;86.80;;;;;;4880555;29;20093;-85
2021/09/14 20:00:13;;;;;;;8.23;6.13;;;22.20;87.10;;;;;;4847966;29;20057;-88
2021/09/14 20:02:39;;;;;;;8.77;6.05;;;22.10;87.20;;;;;;4866038;29;20060;-88
2021/09/14 20:05:06;;;;;;;8.23;6.57;;;22.10;87.10;;;;;;4864262;29;20045;-88
2021/09/14 20:07:32;;;;;;;7.85;6.25;;;22.10;87.10;;;;;;4880015;29;20189;-89
2021/09/14 20:09:57;;;;;;;8.52;6.47;;;22.10;87.10;;;;;;4864527;29;20128;-89
2021/09/14 20:12:26;;;;;;;7.57;6.45;;;22.10;87.00;;;;;;4864405;29;20534;-88
2021/09/14 20:14:57;;;;;;;8.25;6.57;;;22.00;86.90;;;;;;4863510;29;20041;-88
2021/09/14 20:17:28;;;;;;;8.25;6.18;;;22.00;87.10;;;;;;4864499;29;20063;-89
2021/09/14 20:20:13;;;;;;;8.23;6.82;;;22.00;86.90;;;;;;4862093;29;20081;-88
2021/09/14 20:22:59;;;;;;;7.60;6.05;;;21.90;86.70;;;;;;4862005;29;20061;-89
2021/09/14 20:25:35;;;;;;;7.43;6.43;;;21.90;86.70;;;;;;4862696;29;20045;-88
2021/09/14 20:28:06;;;;;;;9.18;6.60;;;21.90;87.10;;;;;;4863296;29;20219;-88
2021/09/14 20:30:38;;;;;;;11.10;7.93;;;21.80;87.10;;;;;;4861672;29;20053;-89
2021/09/14 20:33:04;;;;;;;11.73;8.32;;;21.80;86.30;;;;;;4863920;29;20194;-87
2021/09/14 20:35:29;;;;;;;8.07;6.88;;;21.70;85.20;;;;;;4863123;29;20045;-88
2021/09/14 20:37:55;;;;;;;9.70;6.90;;;21.70;86.30;;;;;;4863391;29;20045;-89
2021/09/14 20:40:21;;;;;;;9.10;7.50;;;21.70;86.90;;;;;;4879305;29;20064;-88
2021/09/14 20:42:47;;;;;;;10.05;7.22;;;21.60;87.10;;;;;;4862966;29;20072;-89
2021/09/14 20:45:17;;;;;;;10.20;8.88;;;21.60;87.30;;;;;;4863255;29;20049;-88
2021/09/14 20:47:42;;;;;;;9.38;7.20;;;21.50;86.90;;;;;;4859628;29;20068;-88
2021/09/14 20:50:11;;;;;;;8.18;7.25;;;21.50;87.60;;;;;;4862491;29;20041;-88
2021/09/14 20:52:37;;;;;;;8.98;7.03;;;21.50;88.00;;;;;;4863036;29;20114;-88
2021/09/14 20:55:04;;;;;;;8.32;6.70;;;21.50;88.20;;;;;;4862854;29;20485;-88
2021/09/14 20:57:35;;;;;;;8.23;6.60;;;21.50;88.30;;;;;;4861639;29;20136;-88
2021/09/14 21:00:04;;;;;;;9.25;6.90;;;21.50;88.40;;;;;;4862029;29;20466;-88
2021/09/14 21:02:33;;;;;;;9.15;7.63;;;21.40;88.40;;;;;;4859766;29;20114;-88
2021/09/14 21:04:58;;;;;;;9.50;7.70;;;21.40;88.50;;;;;;4878339;29;20057;-88
2021/09/14 21:07:24;;;;;;;9.32;7.75;;;21.40;88.60;;;;;;4861743;29;20466;-88
2021/09/14 21:09:49;;;;;;;8.82;7.22;;;21.40;88.70;;;;;;4862061;29;20101;-88
2021/09/14 21:12:15;;;;;;;9.82;7.80;;;21.40;88.70;;;;;;4861703;29;20101;-88
2021/09/14 21:49:44;;;;;;;10.68;8.80;;;21.00;88.30;;;;;;4830293;29;20061;-89
2021/09/14 21:52:10;;;;;;;10.63;8.85;;;21.00;88.30;;;;;;4826779;29;20057;-87
2021/09/14 21:54:47;;;;;;;9.82;8.40;;;21.00;89.40;;;;;;4825646;29;20038;-87
2021/09/14 21:57:12;;;;;;;11.45;9.43;;;21.00;88.70;;;;;;4824546;29;20517;-86
2021/09/14 21:59:38;;;;;;;10.70;9.30;;;21.00;88.70;;;;;;4825752;29;20042;-87
2021/09/14 22:02:03;;;;;;;12.15;9.90;;;21.00;88.70;;;;;;4827983;29;20053;-87
2021/09/14 22:04:31;;;;;;;10.75;9.07;;;21.00;88.60;;;;;;4864072;29;20049;-88
2021/09/14 22:06:56;;;;;;;12.90;10.35;;;20.90;88.50;;;;;;4863521;29;20056;-88
2021/09/14 22:09:22;;;;;;;12.43;10.45;;;21.00;88.70;;;;;;4863700;29;20057;-88
2021/09/14 22:12:55;;;;;;;10.60;9.35;;;20.90;88.80;;;;;;4863163;29;20044;-88
2021/09/14 22:15:24;;;;;;;11.68;10.00;;;20.80;88.00;;;;;;4759886;29;20116;-88
2021/09/14 22:17:55;;;;;;;11.52;10.10;;;20.80;88.70;;;;;;4810170;29;20100;-87
2021/09/14 22:20:27;;;;;;;12.23;10.25;;;20.80;88.70;;;;;;4864143;29;20045;-88
2021/09/14 22:23:08;;;;;;;11.68;10.30;;;20.90;88.80;;;;;;4862944;29;20052;-87
2021/09/14 23:33:25;;;;;;;18.48;14.20;;;20.20;89.10;;;;;;4841884;29;20053;-88
2021/09/14 23:35:53;;;;;;;14.25;11.70;;;20.30;89.60;;;;;;4827192;29;20110;-88
2021/09/14 23:38:19;;;;;;;12.93;11.63;;;20.30;90.00;;;;;;4827484;29;20058;-87
2021/09/14 23:40:45;;;;;;;13.77;12.30;;;20.30;90.00;;;;;;4864721;29;20379;-87
2021/09/14 23:43:10;;;;;;;15.95;13.55;;;20.20;90.00;;;;;;4865064;29;20052;-88
2021/09/14 23:45:36;;;;;;;13.50;12.10;;;20.20;90.00;;;;;;4864020;29;20113;-87
2021/09/14 23:48:02;;;;;;;12.68;11.38;;;20.20;90.00;;;;;;4864473;29;20090;-87
2021/09/14 23:50:27;;;;;;;16.05;14.40;;;20.20;90.00;;;;;;4864976;29;20104;-87
2021/09/14 23:52:53;;;;;;;14.88;12.48;;;20.20;90.00;;;;;;4863970;29;20136;-87
2021/09/14 23:55:18;;;;;;;13.48;12.18;;;20.20;90.10;;;;;;4884903;29;20100;-88
2021/09/14 23:57:48;;;;;;;13.85;12.40;;;20.20;90.10;;;;;;4899138;29;20060;-87
